createdAt,value
2017-12-30T00:00:40.866Z,25.2
2017-12-30T00:06:34.997Z,25.3
2017-12-30T00:09:31.931Z,25.4
2017-12-30T00:12:28.977Z,25.4
2017-12-30T00:15:25.911Z,25.5
2017-12-30T00:18:24.201Z,25.5
2017-12-30T00:21:20.867Z,25.6
2017-12-30T00:24:16.965Z,25.7
2017-12-30T00:27:14.038Z,25.7
2017-12-30T00:44:57.165Z,26
2017-12-30T00:47:53.917Z,26.1
2017-12-30T00:50:50.329Z,26
2017-12-30T00:56:43.938Z,26.1
2017-12-30T00:59:41.000Z,26.2
2017-12-30T01:02:37.975Z,26.2
2017-12-30T01:05:35.309Z,26.2
2017-12-30T01:11:30.100Z,26.3
2017-12-30T01:14:27.071Z,26.3
2017-12-30T01:17:23.007Z,26.4
2017-12-30T01:20:19.943Z,26.4
2017-12-30T01:26:14.044Z,26.6
2017-12-30T01:29:10.951Z,26.6
2017-12-30T01:32:07.952Z,26.6
2017-12-30T01:35:05.222Z,26.7
2017-12-30T01:38:01.964Z,26.7
2017-12-30T01:40:58.915Z,26.8
2017-12-30T01:49:50.006Z,26.9
2017-12-30T01:52:46.949Z,27
2017-12-30T01:55:44.019Z,27
2017-12-30T02:10:30.087Z,27.4
2017-12-30T02:13:25.943Z,27.5
2017-12-30T02:19:21.278Z,27.7
2017-12-30T02:25:14.125Z,27.9
2017-12-30T02:34:06.239Z,28.2
2017-12-30T02:40:00.085Z,28.4
2017-12-30T02:42:57.094Z,28.4
2017-12-30T02:45:53.186Z,28.5
2017-12-30T02:48:50.107Z,28.6
2017-12-30T02:51:47.111Z,28.8
2017-12-30T02:54:44.124Z,28.8
2017-12-30T02:57:41.228Z,28.9
2017-12-30T03:00:38.024Z,29
2017-12-30T03:06:32.153Z,29.1
2017-12-30T03:09:29.100Z,29.2
2017-12-30T03:12:26.155Z,29.2
2017-12-30T03:15:24.080Z,29.3
2017-12-30T03:21:18.174Z,29.5
2017-12-30T03:27:11.187Z,29.6
2017-12-30T03:30:08.143Z,29.7
2017-12-30T03:36:03.211Z,29.8
2017-12-30T03:41:57.152Z,29.9
2017-12-30T03:47:51.158Z,29.9
2017-12-30T03:59:39.166Z,30.1
2017-12-30T04:02:36.192Z,30.1
2017-12-30T04:08:30.229Z,30.2
2017-12-30T04:11:27.219Z,30.2
2017-12-30T04:14:24.091Z,30.3
2017-12-30T04:17:21.121Z,30.4
2017-12-30T04:20:18.166Z,30.4
2017-12-30T04:23:15.079Z,30.6
2017-12-30T04:26:12.256Z,30.5
2017-12-30T04:29:09.238Z,30.7
2017-12-30T04:32:06.236Z,30.7
2017-12-30T04:40:57.301Z,30.8
2017-12-30T04:43:54.116Z,30.9
2017-12-30T04:46:51.099Z,30.9
2017-12-30T04:49:48.121Z,31
2017-12-30T04:55:42.209Z,31
2017-12-30T05:01:36.230Z,31.1
2017-12-30T05:10:27.267Z,31.3
2017-12-30T05:19:18.151Z,31.3
2017-12-30T05:22:15.376Z,31.3
2017-12-30T05:25:12.330Z,31.3
2017-12-30T05:28:09.128Z,31.4
2017-12-30T05:39:57.369Z,31.5
2017-12-30T05:42:54.118Z,31.6
2017-12-30T05:45:51.181Z,31.6
2017-12-30T05:48:48.211Z,31.6
2017-12-30T05:51:45.199Z,31.6
2017-12-30T05:57:39.246Z,31.7
2017-12-30T06:00:36.208Z,31.7
2017-12-30T06:03:33.207Z,31.8
2017-12-30T06:09:27.317Z,31.7
2017-12-30T06:12:24.170Z,31.8
2017-12-30T06:15:21.251Z,31.7
2017-12-30T06:24:12.241Z,31.8
2017-12-30T06:30:06.209Z,31.7
2017-12-30T06:33:03.293Z,31.7
2017-12-30T06:36:00.188Z,31.8
2017-12-30T06:38:57.199Z,31.8
2017-12-30T06:44:51.260Z,31.8
2017-12-30T06:47:48.167Z,31.8
2017-12-30T06:50:45.263Z,31.9
2017-12-30T06:53:42.192Z,31.9
2017-12-30T06:56:39.206Z,31.9
2017-12-30T07:02:33.326Z,31.9
2017-12-30T07:05:30.201Z,31.9
2017-12-30T07:08:27.257Z,31.9
2017-12-30T07:11:24.233Z,31.9
2017-12-30T07:14:21.259Z,31.9
2017-12-30T07:17:18.286Z,31.9
2017-12-30T07:32:03.286Z,31.9
2017-12-30T07:37:57.523Z,31.9
2017-12-30T07:40:54.197Z,31.9
2017-12-30T07:46:48.593Z,31.8
2017-12-30T07:49:45.196Z,31.8
2017-12-30T07:52:42.260Z,31.8
2017-12-30T07:55:39.384Z,31.8
2017-12-30T08:01:33.555Z,31.7
2017-12-30T08:04:30.482Z,31.7
2017-12-30T08:07:27.476Z,31.7
2017-12-30T08:10:24.600Z,31.8
2017-12-30T08:13:21.190Z,31.7
2017-12-30T08:16:18.294Z,31.7
2017-12-30T08:19:15.158Z,31.6
2017-12-30T08:22:12.294Z,31.7
2017-12-30T08:25:09.261Z,31.7
2017-12-30T08:28:11.384Z,31.6
2017-12-30T08:31:03.482Z,31.6
2017-12-30T08:34:00.401Z,31.7
2017-12-30T08:36:57.274Z,31.6
2017-12-30T08:39:54.264Z,31.6
2017-12-30T08:42:51.268Z,31.6
2017-12-30T08:48:45.308Z,31.6
2017-12-30T08:51:42.299Z,31.5
2017-12-30T08:54:39.238Z,31.4
2017-12-30T08:57:41.532Z,31.4
2017-12-30T09:00:33.287Z,31.4
2017-12-30T09:03:30.277Z,31.4
2017-12-30T09:06:27.427Z,31.4
2017-12-30T09:09:24.316Z,31.4
2017-12-30T09:12:21.241Z,31.4
2017-12-30T09:15:18.348Z,31.4
2017-12-30T09:18:15.303Z,31.4
2017-12-30T09:21:12.313Z,31.4
2017-12-30T09:24:09.369Z,31.4
2017-12-30T09:27:07.477Z,31.5
2017-12-30T09:30:03.326Z,31.5
2017-12-30T09:33:00.334Z,31.5
2017-12-30T09:35:57.517Z,31.4
2017-12-30T09:38:54.387Z,31.2
2017-12-30T09:41:51.343Z,31
2017-12-30T09:44:48.364Z,30.9
2017-12-30T09:47:45.487Z,30.8
2017-12-30T09:50:42.353Z,30.7
2017-12-30T09:53:39.270Z,30.6
2017-12-30T09:56:36.537Z,30.6
2017-12-30T09:59:33.343Z,30.4
2017-12-30T10:05:27.515Z,30.4
2017-12-30T10:08:24.399Z,30.3
2017-12-30T10:11:21.324Z,30.2
2017-12-30T10:14:18.467Z,30.1
2017-12-30T10:17:15.492Z,30.2
2017-12-30T10:20:12.442Z,30.1
2017-12-30T10:23:09.427Z,30.1
2017-12-30T10:26:06.436Z,30
2017-12-30T10:32:00.435Z,29.9
2017-12-30T10:34:57.339Z,29.8
2017-12-30T10:37:54.544Z,29.8
2017-12-30T10:40:51.269Z,29.8
2017-12-30T10:43:48.472Z,29.7
2017-12-30T10:46:45.296Z,29.7
2017-12-30T10:49:42.403Z,29.6
2017-12-30T10:52:39.310Z,29.6
2017-12-30T10:55:36.421Z,29.6
2017-12-30T11:01:30.412Z,29.5
2017-12-30T11:04:27.407Z,29.4
2017-12-30T11:07:24.407Z,29.4
2017-12-30T11:10:21.382Z,29.4
2017-12-30T11:13:19.360Z,29.4
2017-12-30T11:16:15.526Z,29.4
2017-12-30T11:19:13.388Z,29.4
2017-12-30T11:22:09.356Z,29.3
2017-12-30T11:25:06.505Z,29.3
2017-12-30T11:28:03.302Z,29.3
2017-12-30T11:31:00.377Z,29.3
2017-12-30T11:33:57.292Z,29.2
2017-12-30T11:36:54.372Z,29.2
2017-12-30T11:39:51.413Z,29.2
2017-12-30T11:42:48.435Z,29.2
2017-12-30T11:45:45.338Z,29.2
2017-12-30T11:48:42.407Z,29.2
2017-12-30T11:51:39.383Z,29.2
2017-12-30T11:54:36.358Z,29.2
2017-12-30T11:57:33.476Z,29.2
2017-12-30T12:00:30.335Z,29.2
2017-12-30T12:03:27.348Z,29.2
2017-12-30T12:06:24.429Z,29.1
2017-12-30T12:09:21.523Z,29.1
2017-12-30T12:12:18.437Z,29.1
2017-12-30T12:15:15.875Z,29.1
2017-12-30T12:18:12.421Z,29
2017-12-30T12:21:09.499Z,29
2017-12-30T12:24:06.300Z,29
2017-12-30T12:27:03.378Z,29
2017-12-30T12:32:57.432Z,29
2017-12-30T12:35:54.555Z,28.9
2017-12-30T12:38:51.543Z,29
2017-12-30T12:41:48.422Z,28.9
2017-12-30T12:44:45.444Z,28.9
2017-12-30T12:47:42.362Z,28.9
2017-12-30T12:50:39.591Z,28.8
2017-12-30T12:53:37.416Z,28.8
2017-12-30T12:56:33.788Z,28.8
2017-12-30T12:59:30.461Z,28.7
2017-12-30T13:02:27.488Z,28.7
2017-12-30T13:05:24.529Z,28.6
2017-12-30T13:08:21.487Z,28.6
2017-12-30T13:11:19.540Z,28.5
2017-12-30T13:14:15.471Z,28.5
2017-12-30T13:17:12.431Z,28.4
2017-12-30T13:20:10.441Z,28.4
2017-12-30T13:23:06.577Z,28.4
2017-12-30T13:26:03.447Z,28.3
2017-12-30T13:29:00.425Z,28.2
2017-12-30T13:31:57.514Z,28.2
2017-12-30T13:34:54.376Z,28.2
2017-12-30T13:37:51.354Z,28.1
2017-12-30T13:40:48.522Z,28.1
2017-12-30T13:43:45.501Z,28.1
2017-12-30T13:46:42.362Z,28
2017-12-30T13:49:39.470Z,28
2017-12-30T13:52:36.464Z,28
2017-12-30T13:55:33.620Z,28
2017-12-30T14:01:27.618Z,27.9
2017-12-30T14:04:24.432Z,27.9
2017-12-30T14:07:21.587Z,27.9
2017-12-30T14:10:19.447Z,27.8
2017-12-30T14:13:15.524Z,27.8
2017-12-30T14:16:12.399Z,27.8
2017-12-30T14:19:09.445Z,27.7
2017-12-30T14:22:06.363Z,27.7
2017-12-30T14:25:03.427Z,27.7
2017-12-30T14:28:00.489Z,27.7
2017-12-30T14:30:57.509Z,27.6
2017-12-30T14:33:54.428Z,27.6
2017-12-30T14:36:51.497Z,27.6
2017-12-30T14:39:48.555Z,27.5
2017-12-30T14:42:45.510Z,27.4
2017-12-30T14:45:42.412Z,27.4
2017-12-30T14:48:39.512Z,27.4
2017-12-30T14:51:37.117Z,27.4
2017-12-30T14:54:33.480Z,27.4
2017-12-30T14:57:30.419Z,27.4
2017-12-30T15:00:27.561Z,27.3
2017-12-30T15:03:24.469Z,27.3
2017-12-30T15:06:21.784Z,27.3
2017-12-30T15:09:18.502Z,27.2
2017-12-30T15:12:16.683Z,27.2
2017-12-30T15:15:12.594Z,27.2
2017-12-30T15:18:09.552Z,27.2
2017-12-30T15:21:06.467Z,27.2
2017-12-30T15:24:03.412Z,27.1
2017-12-30T15:27:00.491Z,27.1
2017-12-30T15:29:57.544Z,27
2017-12-30T15:32:54.423Z,27
2017-12-30T15:35:52.563Z,26.9
2017-12-30T15:38:49.632Z,27
2017-12-30T15:44:43.660Z,26.8
2017-12-30T15:47:39.800Z,26.8
2017-12-30T15:50:36.657Z,26.8
2017-12-30T15:53:33.429Z,26.8
2017-12-30T15:56:30.548Z,26.8
2017-12-30T15:59:27.528Z,26.8
2017-12-30T16:02:24.592Z,26.7
2017-12-30T16:05:21.686Z,26.7
2017-12-30T16:08:18.525Z,26.7
2017-12-30T16:11:16.544Z,26.7
2017-12-30T16:17:09.634Z,26.6
2017-12-30T16:20:06.458Z,26.6
2017-12-30T16:23:03.696Z,26.5
2017-12-30T16:26:00.581Z,26.6
2017-12-30T16:28:57.606Z,26.5
2017-12-30T16:31:54.480Z,26.5
2017-12-30T16:34:51.503Z,26.5
2017-12-30T16:37:48.481Z,26.5
2017-12-30T16:40:46.578Z,26.5
2017-12-30T16:43:42.506Z,26.4
2017-12-30T16:46:39.578Z,26.4
2017-12-30T16:49:36.440Z,26.4
2017-12-30T16:52:33.618Z,26.4
2017-12-30T16:55:30.489Z,26.4
2017-12-30T16:58:28.635Z,26.3
2017-12-30T17:01:24.555Z,26.4
2017-12-30T17:04:22.537Z,26.4
2017-12-30T17:07:19.629Z,26.4
2017-12-30T17:10:16.564Z,26.3
2017-12-30T17:13:12.904Z,26.4
2017-12-30T17:16:09.575Z,26.3
2017-12-30T17:22:03.616Z,26.2
2017-12-30T17:25:00.510Z,26.2
2017-12-30T17:27:58.735Z,26.1
2017-12-30T17:30:54.532Z,26.1
2017-12-30T17:33:52.644Z,26.1
2017-12-30T17:36:49.680Z,26.1
2017-12-30T17:39:45.574Z,26.1
2017-12-30T17:42:43.621Z,26.1
2017-12-30T17:45:39.577Z,26.1
2017-12-30T17:48:36.465Z,26.1
2017-12-30T17:51:34.597Z,26
2017-12-30T17:54:31.315Z,26
2017-12-30T17:57:27.758Z,26
2017-12-30T18:00:25.555Z,26
2017-12-30T18:06:18.640Z,26
2017-12-30T18:09:16.605Z,26
2017-12-30T18:12:13.624Z,26
2017-12-30T18:18:07.016Z,25.9
2017-12-30T18:21:03.478Z,25.9
2017-12-30T18:24:00.599Z,25.9
2017-12-30T18:26:58.636Z,25.9
2017-12-30T18:29:54.557Z,25.9
2017-12-30T18:32:51.654Z,25.8
2017-12-30T18:35:48.570Z,25.8
2017-12-30T18:38:45.492Z,25.8
2017-12-30T18:41:43.642Z,25.8
2017-12-30T18:44:39.619Z,25.8
2017-12-30T18:47:36.590Z,25.8
2017-12-30T18:50:33.436Z,25.7
2017-12-30T18:53:30.572Z,25.7
2017-12-30T18:56:28.475Z,25.7
2017-12-30T18:59:25.560Z,25.7
2017-12-30T19:05:18.630Z,25.6
2017-12-30T19:08:16.511Z,25.6
2017-12-30T19:11:13.632Z,25.6
2017-12-30T19:14:10.447Z,25.6
2017-12-30T19:17:07.578Z,25.6
2017-12-30T19:20:03.601Z,25.6
2017-12-30T19:23:00.506Z,25.6
2017-12-30T19:25:57.509Z,25.5
2017-12-30T19:28:54.804Z,25.5
2017-12-30T19:31:52.464Z,25.5
2017-12-30T19:34:48.558Z,25.5
2017-12-30T19:37:46.602Z,25.5
2017-12-30T19:40:43.499Z,25.5
2017-12-30T19:43:39.976Z,25.5
2017-12-30T19:46:37.421Z,25.4
2017-12-30T19:49:33.506Z,25.4
2017-12-30T19:52:31.454Z,25.4
2017-12-30T19:55:27.544Z,25.4
2017-12-30T19:58:24.671Z,25.4
2017-12-30T20:01:21.573Z,25.4
2017-12-30T20:04:19.596Z,25.4
2017-12-30T20:07:16.772Z,25.5
2017-12-30T20:10:13.725Z,25.5
2017-12-30T20:13:10.459Z,25.5
2017-12-30T20:16:06.637Z,25.5
2017-12-30T20:19:04.640Z,25.5
2017-12-30T20:22:01.664Z,25.5
2017-12-30T20:24:57.533Z,25.5
2017-12-30T20:27:54.716Z,25.5
2017-12-30T20:30:51.883Z,25.6
2017-12-30T20:33:49.613Z,25.6
2017-12-30T20:36:46.632Z,25.7
2017-12-30T20:39:43.605Z,25.7
2017-12-30T20:42:40.483Z,25.7
2017-12-30T20:45:37.647Z,25.8
2017-12-30T20:48:34.539Z,25.8
2017-12-30T20:51:31.643Z,25.8
2017-12-30T20:54:28.581Z,25.8
2017-12-30T20:57:25.507Z,25.8
2017-12-30T21:00:22.664Z,25.8
2017-12-30T21:03:19.724Z,25.9
2017-12-30T21:06:16.585Z,25.9
2017-12-30T21:09:13.627Z,25.9
2017-12-30T21:12:10.649Z,25.9
2017-12-30T21:15:08.125Z,25.9
2017-12-30T21:18:04.499Z,25.9
2017-12-30T21:21:01.659Z,25.9
2017-12-30T21:26:55.726Z,25.9
2017-12-30T21:29:52.763Z,25.9
2017-12-30T21:32:49.652Z,25.9
2017-12-30T21:35:46.646Z,25.9
2017-12-30T21:38:43.696Z,25.9
2017-12-30T21:41:40.630Z,25.8
2017-12-30T21:44:37.678Z,25.8
2017-12-30T21:47:35.057Z,25.8
2017-12-30T21:50:31.700Z,25.8
2017-12-30T21:53:28.675Z,25.7
2017-12-30T21:56:25.546Z,25.7
2017-12-30T21:59:22.533Z,25.7
2017-12-30T22:02:19.677Z,25.6
2017-12-30T22:05:16.681Z,25.6
2017-12-30T22:08:13.832Z,25.5
2017-12-30T22:11:10.565Z,25.4
2017-12-30T22:14:07.746Z,25.4
2017-12-30T22:17:04.656Z,25.4
2017-12-30T22:20:01.644Z,25.3
2017-12-30T22:22:58.612Z,25.2
2017-12-30T22:25:55.618Z,25.2
2017-12-30T22:28:52.525Z,25.2
2017-12-30T22:31:49.683Z,25.2
2017-12-30T22:37:43.601Z,25.1
2017-12-30T22:40:45.501Z,25.1
2017-12-30T22:43:37.619Z,25.1
2017-12-30T22:46:34.603Z,25
2017-12-30T22:49:32.067Z,25
2017-12-30T22:52:28.676Z,25.1
2017-12-30T22:55:25.701Z,25.1
2017-12-30T22:58:22.599Z,25
2017-12-30T23:01:19.650Z,25
2017-12-30T23:07:13.683Z,25
2017-12-30T23:10:10.577Z,25
2017-12-30T23:13:07.703Z,25
2017-12-30T23:16:04.610Z,25
2017-12-30T23:19:01.649Z,25
2017-12-30T23:21:58.824Z,25
2017-12-30T23:24:55.786Z,25
2017-12-30T23:27:52.906Z,25
2017-12-30T23:30:49.750Z,25
2017-12-30T23:36:43.820Z,25.1
2017-12-30T23:39:40.733Z,25.2
2017-12-30T23:42:37.687Z,25.2
2017-12-30T23:45:34.618Z,25.2
2017-12-30T23:48:31.806Z,25.2
2017-12-30T23:51:28.733Z,25.3
2017-12-30T23:54:25.625Z,25.4
2017-12-30T23:57:22.819Z,25.4
